首页
METAR-TAF:

METAR-TAF

机场 :

拉斯维加斯, 新墨西哥州, 美国

纬度: 35-39-15N, 经度: 105-08-33W, 海拔: 2096米

当前天气观测

该预报发布于44分钟前的11:53 UTC
风速4节,风向北转西北
温度 18°C
湿度 56%
气压 1023 hPa
能見度: 16.1公里
天空无云

METAR: KLVS 251153Z AUTO 33004KT 10SM CLR 18/09 A3021 RMK AO2 SLP108 70002 T01780094 10200 20144 50002

时间: 06:37 (12:37 UTC)

预报

该预报发布于1小时和17分钟前的11:20 UTC
预报有效从25日的 12点(UTC)到 26日的 12点(UTC)
风速6节,风向多变
能見度: 10公里
散云层高于13000英尺
从 25日的 2100点(UTC)
风速8节,风向东转东南
能見度: 10公里
多云层高于10000英尺, 积雨云.
附近有雷暴
从 26日的 0000点(UTC)
风速6节,风向多变
能見度: 10公里
散云层高于11000英尺

TAF: KLVS 251120Z 2512/2612 VRB06KT P6SM SCT130 FM252100 12008KT P6SM VCTS BKN100CB FM260000 VRB06KT P6SM SCT110

超过4000个机场的气象观测和天气预报(METAR&TAF报告)。

可查询的气象台以黄色和红色小点在地图上表示。

将鼠标移到小点上方,可查看气象台名称。

然后点击查看天气观测和预报。

如需切换地图:点击带黑十字的绿色按钮放大地图;点击带横线的绿色按钮缩小地图;或者点击绿色箭头查看邻近地区的地图。


METAR-TAF: